• Join FlightAware (Why Join?)
  • Login
  • US Flag 
07:24AM EDT


 

Airport Tracker/Info


-or-


 

Live Flight TrackerFlight Track Log ✈ N9294N ✈ 09-Dec-2013 ✈ KIAH - KTVR

Flight Track Log - Related Links

Times and Time Zones

All times are in EST time to prevent confusion due to time zone crossing. See the N9294N flight status page for this flight to view local times or setup timezone preferences in your user account.

Time Position Orientation Groundspeed Altitude Reporting Facility
EST Latitude Longitude Course Direction KTS MPH feet Rate Location/Type
10:55AM 29.9664 -95.3503 222° Southwest 119 137 500  Level Houston Center
10:56AM 29.9456 -95.3719 222° Southwest 120 138 1,600 960 Climbing Houston Center
10:57AM 29.9461 -95.3764 278° West 167 192 1,700 840 Climbing Houston Center
10:57AM 29.9694 -95.3811 350° North 99 114 2,500 720 Climbing Houston Center
10:58AM 29.9728 -95.3808 North 118 136 2,500 300 Level Houston Center
10:59AM 30.0017 -95.3642 27° Northeast 113 130 2,900 240 Climbing Houston Center
10:59AM 30.0353 -95.3444 27° Northeast 145 167 3,000 60 Climbing Houston Center
11:00AM 30.0375 -95.3439 12° North 126 145 3,000  Level Houston Center
11:00AM 30.0753 -95.3225 26° Northeast 159 183 3,000  Level Houston Center
11:01AM 30.0775 -95.3211 28° Northeast 144 166 3,000  Level Houston Center
11:02AM 30.1192 -95.2981 26° Northeast 160 184 3,000  Level Houston Center
11:02AM 30.1172 -95.2978 173° South 153 176 3,000  Level Houston Center
11:03AM 30.1589 -95.2714 29° Northeast 161 185 3,000  Level Houston Center
11:03AM 30.1633 -95.2692 23° Northeast 156 180 3,000  Level Houston Center
11:04AM 30.1850 -95.2367 52° Northeast 159 183 3,000  Level Houston Center
11:04AM 30.1928 -95.2300 37° Northeast 156 180 3,000  Level Houston Center
11:05AM 30.2175 -95.2014 45° Northeast 156 180 3,000  Level Houston Center
11:05AM 30.2239 -95.1936 46° Northeast 160 184 3,000  Level Houston Center
11:06AM 30.2539 -95.1581 46° Northeast 156 180 3,000 420 Level Houston Center
11:07AM 30.2797 -95.1258 47° Northeast 142 163 3,800 840 Climbing Houston Center
11:07AM 30.2822 -95.1236 38° Northeast 150 173 3,900 480 Climbing Houston Center
11:08AM 30.3131 -95.0953 38° Northeast 145 167 4,400 540 Climbing Houston Center
11:09AM 30.3417 -95.0700 37° Northeast 158 182 4,900 540 Climbing Houston Center
11:09AM 30.3467 -95.0644 44° Northeast 152 175 5,000 120 Climbing Houston Center
11:10AM 30.3819 -95.0294 41° Northeast 164 189 5,100 60 Climbing Houston Center
11:11AM 30.4286 -94.9800 42° Northeast 186 214 5,200 300 Climbing Houston Center
11:12AM 30.4506 -94.9347 61° Northeast 171 197 5,800 480 Climbing Houston Center
11:13AM 30.4664 -94.8864 69° East 163 188 6,200 420 Climbing Houston Center
11:14AM 30.4864 -94.8397 64° Northeast 163 188 6,700 360 Climbing Houston Center
11:15AM 30.5058 -94.7928 64° Northeast 162 186 7,000 180 Climbing Houston Center
11:16AM 30.5253 -94.7425 66° East 167 192 7,100  Climbing Houston Center
11:17AM 30.5508 -94.6783 65° Northeast 179 206 7,100  Level Houston Center
11:18AM 30.5731 -94.6253 64° Northeast 183 211 7,100  Level Houston Center
11:19AM 30.5942 -94.5719 65° Northeast 183 211 7,100  Level Houston Center
11:20AM 30.6161 -94.5189 64° Northeast 183 211 7,200 180 Climbing Houston Center
11:21AM 30.6364 -94.4678 65° Northeast 179 206 7,500 240 Climbing Houston Center
11:22AM 30.6569 -94.4175 65° Northeast 175 201 7,700 180 Climbing Houston Center
11:23AM 30.6811 -94.3575 65° Northeast 172 198 7,900 180 Climbing Houston Center
11:24AM 30.7017 -94.3069 65° Northeast 174 200 8,100 60 Climbing Houston Center
11:25AM 30.7233 -94.2542 64° Northeast 180 207 8,100  Level Houston Center
11:26AM 30.7453 -94.2006 65° Northeast 185 213 8,100  Level Houston Center
11:27AM 30.7514 -94.1783 72° East 186 214 8,100  Level Houston Center
11:27AM 30.7586 -94.1608 64° Northeast 186 214 8,100  Level Houston Center
11:27AM 30.7669 -94.1461 57° Northeast 187 215 8,100  Level Houston Center
11:28AM 30.7808 -94.1033 69° East 186 214 8,100  Level Houston Center
11:28AM 30.7869 -94.0922 57° Northeast 184 212 8,100  Level Houston Center
11:29AM 30.8008 -94.0511 69° East 184 212 8,100  Level Houston Center
11:29AM 30.8092 -94.0378 54° Northeast 186 214 8,100  Level Houston Center
11:30AM 30.8250 -93.9958 66° East 185 213 8,100  Level Houston Center
11:31AM 30.8356 -93.9736 61° Northeast 186 214 8,100  Level Houston Center
11:31AM 30.8450 -93.9433 70° East 185 213 8,100  Level Houston Center
11:32AM 30.8564 -93.9192 61° Northeast 186 214 8,100  Level Houston Center
11:32AM 30.8692 -93.8858 66° East 185 213 8,100  Level Houston Center
11:33AM 30.8789 -93.8650 61° Northeast 187 215 8,100  Level Houston Center
11:33AM 30.8892 -93.8358 68° East 185 213 8,100  Level Houston Center
11:34AM 30.9000 -93.8108 63° Northeast 185 213 8,100  Level Houston Center
11:34AM 30.9131 -93.7758 66° East 187 215 8,100  Level Houston Center
11:35AM 30.9214 -93.7556 64° Northeast 188 216 8,100  Level Houston Center
11:35AM 30.9353 -93.7256 62° Northeast 185 213 8,100  Level Houston Center
11:36AM 30.9486 -93.7036 55° Northeast 190 219 8,100  Level Houston Center
11:36AM 30.9658 -93.6744 55° Northeast 187 215 8,100  Level Houston Center
11:37AM 30.9783 -93.6539 55° Northeast 188 216 8,100  Level Houston Center
11:37AM 30.9942 -93.6214 60° Northeast 186 214 8,100  Level Houston Center
11:38AM 31.0122 -93.5925 54° Northeast 189 217 8,100  Level Houston Center
11:38AM 31.0225 -93.5706 61° Northeast 190 219 8,100  Level Houston Center
11:39AM 31.0403 -93.5422 54° Northeast 191 220 8,100  Level Houston Center
11:39AM 31.0528 -93.5169 60° Northeast 190 219 8,100  Level Houston Center
11:40AM 31.0686 -93.4911 54° Northeast 190 219 8,100  Level Houston Center
11:40AM 31.0792 -93.4664 63° Northeast 189 217 8,100  Level Houston Center
11:41AM 31.0969 -93.4397 52° Northeast 189 217 8,100  Level Houston Center
11:41AM 31.1092 -93.4078 66° East 187 215 8,100  Level Houston Center
11:42AM 31.1228 -93.3872 52° Northeast 188 216 8,100  Level Houston Center
11:42AM 31.1336 -93.3622 63° Northeast 188 216 8,100  Level Houston Center
11:43AM 31.1508 -93.3350 54° Northeast 189 217 8,100  Level Houston Center
11:43AM 31.1639 -93.3086 60° Northeast 188 216 8,100 -120 Level Houston Center
11:44AM 31.1836 -93.2733 57° Northeast 188 216 8,000  Descending Houston Center
11:44AM 31.1900 -93.2578 64° Northeast 186 214 8,100  Climbing Houston Center
11:45AM 31.2114 -93.2217 55° Northeast 188 216 8,000  Descending Houston Center
11:45AM 31.2181 -93.2042 66° East 185 213 8,100  Climbing Houston Center
11:46AM 31.2389 -93.1706 54° Northeast 187 215 8,000  Descending Houston Center
11:46AM 31.2444 -93.1558 66° East 182 209 8,100  Climbing Houston Center
11:47AM 31.2656 -93.1197 56° Northeast 185 213 8,000  Descending Houston Center
11:47AM 31.2747 -93.1019 59° Northeast 185 213 8,100  Climbing Houston Center
11:48AM 31.2928 -93.0694 57° Northeast 184 212 8,000  Descending Houston Center
11:48AM 31.3008 -93.0536 59° Northeast 185 213 8,100  Climbing Houston Center
11:49AM 31.3197 -93.0178 58° Northeast 185 213 8,000  Descending Houston Center
11:49AM 31.3289 -93.0000 59° Northeast 185 213 8,100  Climbing Houston Center
11:50AM 31.3522 -92.9581 57° Northeast 183 211 8,000  Descending Houston Center
11:50AM 31.3553 -92.9536 51° Northeast 182 209 8,100  Climbing Houston Center
11:51AM 31.3797 -92.9064 59° Northeast 185 213 8,000  Descending Houston Center
11:51AM 31.3833 -92.9000 56° Northeast 185 213 8,100  Climbing Houston Center
11:52AM 31.4061 -92.8553 59° Northeast 185 213 8,000  Descending Houston Center
11:52AM 31.4114 -92.8464 55° Northeast 185 213 8,100  Climbing Houston Center
11:53AM 31.4339 -92.8039 58° Northeast 185 213 8,000  Descending Houston Center
11:53AM 31.4392 -92.7928 61° Northeast 185 213 8,100  Climbing Houston Center
11:54AM 31.4611 -92.7533 57° Northeast 184 212 8,000  Descending Houston Center
11:54AM 31.4672 -92.7389 64° Northeast 184 212 8,100  Climbing Houston Center
11:55AM 31.4867 -92.7014 59° Northeast 184 212 8,000  Descending Houston Center
11:55AM 31.4933 -92.6903 55° Northeast 184 212 8,100  Climbing Houston Center
11:56AM 31.5133 -92.6497 60° Northeast 184 212 8,000  Descending Houston Center
11:56AM 31.5214 -92.6389 49° Northeast 184 212 8,100 60 Climbing Houston Center
11:57AM 31.5408 -92.5992 60° Northeast 183 211 8,100  Level Houston Center
11:57AM 31.5492 -92.5850 55° Northeast 184 212 8,100  Level Houston Center
11:58AM 31.5728 -92.5378 60° Northeast 183 211 8,100  Level Houston Center
11:58AM 31.5753 -92.5361 30° Northeast 183 211 8,100  Level Houston Center
11:59AM 31.5983 -92.4883 60° Northeast 181 208 8,100  Level Houston Center
12:00PM 31.6050 -92.4797 48° Northeast 178 205 8,100  Level Houston Center
12:00PM 31.6242 -92.4383 61° Northeast 179 206 8,100  Level Houston Center
12:01PM 31.6308 -92.4283 52° Northeast 179 206 8,100 -120 Level Houston Center
12:01PM 31.6511 -92.3883 59° Northeast 180 207 8,000  Descending Houston Center
12:02PM 31.6569 -92.3794 52° Northeast 180 207 8,100  Climbing Houston Center
12:02PM 31.6764 -92.3389 61° Northeast 179 206 8,000  Descending Houston Center
12:03PM 31.6828 -92.3281 55° Northeast 177 204 8,100 60 Climbing Houston Center
12:04PM 31.7067 -92.2792 60° Northeast 177 204 8,100 -60 Level Houston Center
12:05PM 31.7286 -92.2397 57° Northeast 179 206 8,000 -60 Descending Houston Center
12:06PM 31.7597 -92.1794 59° Northeast 179 206 8,000 -60 Level Houston Center
12:07PM 31.7856 -92.1294 59° Northeast 179 206 7,900 -240 Descending Houston Center
12:08PM 31.8133 -92.0769 58° Northeast 183 211 7,600 -360 Descending Houston Center
12:09PM 31.8422 -92.0228 58° Northeast 190 219 7,200 -300 Descending Houston Center
12:10PM 31.8703 -91.9683 59° Northeast 193 222 7,000 -180 Descending Houston Center
12:11PM 31.8986 -91.9131 59° Northeast 195 224 6,900 -300 Descending Houston Center
12:12PM 31.9272 -91.8567 59° Northeast 198 228 6,400 -780 Descending Houston Center
12:13PM 31.9636 -91.7836 60° Northeast 207 238 5,400 -660 Descending Houston Center
12:14PM 31.9933 -91.7231 60° Northeast 212 244 5,100 -300 Descending Houston Center
12:15PM 32.0225 -91.6678 58° Northeast 207 238 4,900 -120 Descending Houston Center
12:16PM 32.0494 -91.6147 59° Northeast 198 228 4,900  Level Houston Center
12:17PM 32.0753 -91.5633 59° Northeast 189 217 4,900  Level Houston Center
12:18PM 32.1022 -91.5128 58° Northeast 185 213 4,900  Level Houston Center
12:19PM 32.1122 -91.4308 82° East 142 163 5,000  Climbing Memphis Center
12:20PM 32.1203 -91.3878 78° East 139 160 5,000  Level Memphis Center
12:22PM 32.1264 -91.3400 81° East 142 163 5,000  Level Memphis Center
12:23PM 32.1322 -91.2903 82° East 147 169 5,000  Level Memphis Center
12:24PM 32.1386 -91.2406 81° East 152 175 5,000  Level Memphis Center
12:25PM 32.1450 -91.1806 83° East 153 176 5,000  Level Memphis Center
12:26PM 32.1500 -91.1297 83° East 155 178 5,000  Level Memphis Center
12:27PM 32.1561 -91.0786 82° East 157 181 5,000 -60 Level Memphis Center
12:28PM 32.1639 -91.0286 80° East 157 181 4,900 -180 Descending Memphis Center
12:29PM 32.1533 -90.9856 106° East 152 175 4,700 -240 Descending Memphis Center
12:30PM 32.1178 -90.9589 148° Southeast 150 173 4,500 -360 Descending Memphis Center
12:31PM 32.0911 -90.9747 207° Southwest 150 173 4,000 -900 Descending Memphis Center
12:32PM 32.1217 -91.0000 325° Northwest 143 165 2,700 -720 Descending Memphis Center
12:33PM 32.1572 -91.0200 335° Northwest 143 165 2,600 -120 Descending Memphis Center